Wednesday, February 21, 2018, 8:09 PM EST
Back to Local

KBDL, Bradley International Airport

Location: Windsor Locks, CT, United States Lat: 41.933
Local Time: 8:09 PM EST ( 1:09 GMT) Lon: -72.683
Time Zone: US/Eastern Elev: 173 ft

Show me the last for .
Show Decoded

2018-02-21 19:51 METAR KBDL 220051Z 33007G16KT 290V360 10SM FEW075 BKN090 BKN110 15/08 A3031 RMK
                 AO2 PK WND 32028/0007 SLP263 T01500083 =
2018-02-21 18:51 METAR KBDL 212351Z 32018G24KT 10SM FEW065 FEW080 SCT100 17/09 A3027 RMK AO2
                 WSHFT 2247 SLP250 SHRA DSNT N-NE T01670094 10250 20167 53046 =
2018-02-21 18:07 METAR KBDL 212307Z 33016G22KT 10SM FEW045 SCT065 SCT085 BKN130 19/11 A3023 RMK
                 AO2 WSHFT 2247 PRESRR T01940111 =
2018-02-21 17:51 METAR KBDL 212251Z 33013G22KT 10SM FEW045 FEW065 SCT080 SCT130 21/12 A3021 RMK
                 AO2 PRESRR SLP228 SHRA DSNT N-E AND SW T02110122 =
2018-02-21 16:51 METAR KBDL 212151Z 18010KT 10SM FEW035 FEW070 FEW250 22/14 A3014 RMK AO2 SLP207
                 T02220139 =
2018-02-21 15:51 METAR KBDL 212051Z 17013KT 10SM FEW034 FEW090 FEW250 23/14 A3013 RMK AO2 SLP203
                 T02280144 55006 =
2018-02-21 14:51 METAR KBDL 211951Z 18011KT 10SM FEW040 FEW090 BKN250 22/14 A3013 RMK AO2 SLP203
                 T02220139 =
2018-02-21 13:51 METAR KBDL 211851Z 19012KT 10SM BKN250 23/14 A3013 RMK AO2 SLP203 T02280139 =
2018-02-21 12:51 METAR KBDL 211751Z 20010KT 10SM BKN250 22/14 A3015 RMK AO2 SLP210 T02220139
                 10222 20117 58026 =
2018-02-21 11:51 METAR KBDL 211651Z 18009KT 10SM FEW025 BKN250 21/14 A3019 RMK AO2 SLP222
                 T02110139 =
2018-02-21 10:51 METAR KBDL 211551Z 20012KT 10SM FEW020 BKN250 19/14 A3022 RMK AO2 SLP233
                 T01940139 =
2018-02-21 09:51 METAR KBDL 211451Z 21012KT 10SM SCT016 BKN250 18/14 A3023 RMK AO2 SLP236
                 T01780139 56006 =
2018-02-21 09:47 METAR KBDL 211447Z 21014KT 10SM SCT016 BKN250 17/14 A3023 RMK AO2 =
2018-02-21 09:32 METAR KBDL 211432Z 21012KT 10SM BKN016 BKN250 17/14 A3024 RMK AO2 T01670139 =
2018-02-21 08:51 METAR KBDL 211351Z 20011KT 10SM BKN014 BKN250 16/14 A3024 RMK AO2 SLP239 BKN014
                 V SCT T01560139 =
2018-02-21 07:51 METAR KBDL 211251Z 20009KT 7SM OVC013 14/13 A3025 RMK AO2 SLP242 T01390133 =
2018-02-21 07:19 METAR KBDL 211219Z 18007KT 4SM BR OVC012 13/13 A3025 =
2018-02-21 07:06 METAR KBDL 211206Z 18007KT 2 1/2SM BR OVC012 12/12 A3025 RMK AO2 T01220122 =
2018-02-21 06:51 METAR KBDL 211151Z 17007KT 1 1/2SM BR FEW003 OVC012 12/12 A3025 RMK AO2 SFC VIS
                 2 SLP242 T01170117 10117 20078 58007 =
2018-02-21 06:41 METAR KBDL 211141Z 17008KT 1SM R06/P6000FT BR FEW003 OVC011 11/11 A3024 RMK AO2
                 SFC VIS 1 1/2 T01110111 =
2018-02-21 06:33 METAR KBDL 211133Z 16008KT 1/2SM R06/P6000FT BR SCT003 OVC011 11/11 A3024 RMK
                 AO2 SFC VIS 1 T01110111 =
2018-02-21 05:51 METAR KBDL 211051Z 17008KT 1/4SM R06/2000V2400FT FG VV002 11/11 A3025 RMK AO2
                 SLP243 T01110111 =
2018-02-21 05:19 METAR KBDL 211019Z 17005KT 1/4SM R06/1600V2200FT FG VV002 10/10 A3026 RMK AO2
                 T01000100 =
2018-02-21 04:51 METAR KBDL 210951Z 16004KT 1/4SM R06/1800V2600FT FG VV002 09/09 A3027 RMK AO2
                 SLP248 T00890089 =
2018-02-21 04:40 METAR KBDL 210940Z 16003KT 1/4SM R06/1800V2000FT FG VV002 09/09 A3027 RMK AO2
                 T00940094 =
2018-02-21 03:51 METAR KBDL 210851Z 18005KT 1/4SM R06/3000V4000FT BR VV002 09/09 A3027 RMK AO2
                 SFC VIS 3/4 SLP249 T00940094 56007 =
2018-02-21 03:25 METAR KBDL 210825Z 17005KT 1 1/2SM BR OVC004 08/08 A3026 RMK AO2 TWR VIS 2
                 T00780078 =
2018-02-21 02:51 METAR KBDL 210751Z 00000KT 1 1/2SM BR FEW001 BKN005 09/09 A3027 RMK AO2 TWR VIS
                 2 SLP249 T00890089 =
2018-02-21 02:39 METAR KBDL 210739Z 00000KT 1 1/2SM BR FEW001 BKN005 09/09 A3027 RMK AO2
                 T00890089 =
2018-02-21 02:30 METAR KBDL 210730Z 15003KT 2 1/2SM BR SCT005 SCT250 08/08 A3028 RMK AO2
                 T00830083 =
2018-02-21 01:51 METAR KBDL 210651Z 15005KT 5SM MIFG BR SCT006 BKN250 08/08 A3029 RMK AO2 SLP256
                 MIFG W-NW T00830078 =
2018-02-21 01:19 METAR KBDL 210619Z 15006KT 6SM BR FEW007 BKN250 09/09 A3029 RMK AO2 T00940089 =
2018-02-21 00:51 METAR KBDL 210551Z 16007KT 7SM SCT250 10/09 A3029 RMK AO2 SLP257 T01000094 10156
                 20100 50004 =
2018-02-20 23:51 METAR KBDL 210451Z 17008KT 9SM SCT250 11/10 A3029 RMK AO2 SLP257 T01110100
                 402000061 =
2018-02-20 22:51 METAR KBDL 210351Z 19009KT 9SM CLR 12/11 A3028 RMK AO2 SLP255 T01220106 =
2018-02-20 21:51 METAR KBDL 210251Z 19012KT 10SM FEW120 FEW250 13/11 A3028 RMK AO2 SLP252
                 T01330106 50000 =
2018-02-20 20:51 METAR KBDL 210151Z 20012KT 10SM SCT110 SCT220 16/11 A3028 RMK AO2 SLP253
                 T01560111 =

Support USWX by starting your Amazon purchase here.